Time;durP1;ratioP1;P1;durP2;ratioP2;P2;SDS_P1;SDS_P2;PMS_P1;PMS_P2;Temp;Humidity;BMP_temperature;BMP_pressure;BME280_temperature;BME280_humidity;BME280_pressure;Samples;Min_cycle;Max_cycle;Signal;HPM_P1;HPM_P2
2022/06/19 00:01:49;;;;;;;18.03;6.43;;;22.40;99.90;;;;;;5050679;28;20442;-63
2022/06/19 00:04:15;;;;;;;17.42;6.57;;;22.40;99.90;;;;;;5047802;28;20401;-55
2022/06/19 00:06:42;;;;;;;17.35;6.38;;;22.30;99.90;;;;;;5048196;28;20412;-55
2022/06/19 00:09:08;;;;;;;16.67;5.70;;;22.20;99.90;;;;;;5046695;28;20470;-55
2022/06/19 00:11:36;;;;;;;13.20;5.50;;;22.20;99.90;;;;;;5047956;28;20480;-55
2022/06/19 00:14:02;;;;;;;21.40;5.90;;;22.10;99.90;;;;;;5049630;28;20476;-55
2022/06/19 00:16:27;;;;;;;16.90;6.30;;;22.20;99.90;;;;;;5045656;28;20549;-55
2022/06/19 00:18:53;;;;;;;17.52;5.45;;;22.20;99.90;;;;;;5046537;28;20397;-56
2022/06/19 00:21:19;;;;;;;15.23;6.20;;;22.30;99.90;;;;;;5030792;28;20432;-55
2022/06/19 00:23:45;;;;;;;17.35;5.10;;;22.40;99.90;;;;;;5049636;28;20528;-55
2022/06/19 00:26:12;;;;;;;16.38;5.72;;;22.40;99.90;;;;;;5050083;28;20393;-55
2022/06/19 00:28:40;;;;;;;17.75;6.07;;;22.40;99.90;;;;;;5049598;28;20393;-55
2022/06/19 00:31:05;;;;;;;14.52;5.50;;;22.40;99.90;;;;;;5049960;28;20405;-55
2022/06/19 00:33:31;;;;;;;19.27;5.33;;;22.20;99.90;;;;;;5048897;28;20961;-57
2022/06/19 00:35:57;;;;;;;17.65;5.63;;;22.30;99.90;;;;;;5049020;28;20393;-59
2022/06/19 00:38:23;;;;;;;16.17;5.80;;;22.10;99.90;;;;;;5048880;28;20405;-58
2022/06/19 00:40:48;;;;;;;16.90;5.90;;;21.90;99.90;;;;;;5049745;28;20467;-57
2022/06/19 00:43:15;;;;;;;18.60;6.60;;;21.80;99.90;;;;;;5030999;28;20405;-58
2022/06/19 00:45:50;;;;;;;15.73;5.82;;;21.80;99.90;;;;;;5049811;28;20477;-55
2022/06/19 00:48:37;;;;;;;19.23;6.45;;;21.80;99.90;;;;;;5048751;28;20480;-56
2022/06/19 00:51:05;;;;;;;16.15;5.60;;;21.80;99.90;;;;;;5046183;28;20417;-55
2022/06/19 00:53:46;;;;;;;16.02;5.50;;;22.00;99.90;;;;;;5048334;28;20474;-56
2022/06/19 00:56:17;;;;;;;16.27;5.60;;;22.10;99.90;;;;;;5048881;28;20405;-56
2022/06/19 00:58:45;;;;;;;15.40;5.70;;;22.30;99.90;;;;;;5049778;28;20531;-56
2022/06/19 01:01:15;;;;;;;19.92;5.82;;;22.50;99.90;;;;;;5047198;28;20505;-57
2022/06/19 01:03:59;;;;;;;19.92;5.15;;;22.50;99.90;;;;;;5049949;28;20401;-56
2022/06/19 01:06:26;;;;;;;18.65;5.00;;;22.50;99.90;;;;;;5048985;28;20398;-56
2022/06/19 01:08:52;;;;;;;18.27;5.30;;;22.60;99.90;;;;;;5032139;28;20802;-56
2022/06/19 01:11:21;;;;;;;17.45;5.32;;;22.60;99.90;;;;;;5048797;28;20893;-56
2022/06/19 01:13:47;;;;;;;17.25;6.13;;;22.70;99.90;;;;;;5049815;28;20427;-56
2022/06/19 01:16:13;;;;;;;20.45;5.78;;;22.50;99.90;;;;;;5048977;28;20402;-56
2022/06/19 01:18:41;;;;;;;14.80;6.63;;;22.50;99.90;;;;;;5049676;28;20381;-56
2022/06/19 01:21:20;;;;;;;19.55;6.30;;;22.50;99.90;;;;;;5049230;28;20905;-55
2022/06/19 01:24:01;;;;;;;17.40;5.90;;;22.50;99.90;;;;;;5048902;28;20500;-56
2022/06/19 01:26:29;;;;;;;18.23;6.20;;;22.40;99.90;;;;;;5048708;28;20397;-56
2022/06/19 01:28:56;;;;;;;18.65;6.00;;;22.40;99.90;;;;;;5049210;28;20843;-56
2022/06/19 01:31:27;;;;;;;24.67;6.20;;;22.30;99.90;;;;;;5047587;28;20440;-56
2022/06/19 01:37:11;;;;;;;18.42;6.60;;;22.20;99.90;;;;;;5049305;28;20751;-56
2022/06/19 01:39:50;;;;;;;13.52;5.57;;;22.10;99.90;;;;;;5048192;28;20474;-56
2022/06/19 01:42:16;;;;;;;16.60;6.00;;;22.20;99.90;;;;;;5048428;28;20418;-56
2022/06/19 01:44:44;;;;;;;16.60;6.25;;;22.20;99.90;;;;;;5046154;28;20451;-56
2022/06/19 01:47:10;;;;;;;16.90;5.80;;;22.20;99.90;;;;;;5041034;28;20739;-56
2022/06/19 01:49:38;;;;;;;16.60;5.90;;;22.20;99.90;;;;;;5044890;28;20531;-56
2022/06/19 01:52:05;;;;;;;18.25;6.20;;;22.10;99.90;;;;;;5049142;28;20435;-55
2022/06/19 01:54:44;;;;;;;18.35;6.30;;;22.00;99.90;;;;;;5048216;28;20640;-56
2022/06/19 01:57:11;;;;;;;21.70;6.20;;;22.00;99.90;;;;;;5049430;28;20981;-56
2022/06/19 01:59:40;;;;;;;17.13;5.60;;;21.80;99.90;;;;;;5048614;28;20417;-56
2022/06/19 02:02:09;;;;;;;20.27;6.15;;;21.70;99.90;;;;;;5049403;28;20389;-55
2022/06/19 02:04:35;;;;;;;16.83;5.53;;;21.60;99.90;;;;;;5048549;28;20412;-55
2022/06/19 02:07:05;;;;;;;20.70;6.28;;;21.60;99.90;;;;;;5048989;28;20385;-56
2022/06/19 02:09:33;;;;;;;16.50;5.72;;;21.40;99.90;;;;;;5048031;28;20973;-56
2022/06/19 02:11:58;;;;;;;12.55;5.25;;;21.50;99.90;;;;;;5049369;28;20378;-55
2022/06/19 02:14:24;;;;;;;20.10;6.30;;;21.40;99.90;;;;;;5048176;28;20896;-56
2022/06/19 02:16:50;;;;;;;15.73;5.53;;;21.40;99.90;;;;;;5049351;28;20386;-56
2022/06/19 02:19:18;;;;;;;14.05;5.70;;;21.40;99.90;;;;;;5048239;28;20940;-56
2022/06/19 02:21:51;;;;;;;17.08;5.88;;;21.30;99.90;;;;;;5048813;28;20807;-55
2022/06/19 02:24:20;;;;;;;16.63;5.60;;;21.20;99.90;;;;;;5048125;28;20425;-56
2022/06/19 02:26:50;;;;;;;15.75;5.38;;;21.00;99.90;;;;;;5048919;28;20381;-60
2022/06/19 02:29:18;;;;;;;17.25;5.60;;;21.00;99.90;;;;;;5028452;28;20413;-62
2022/06/19 02:31:47;;;;;;;17.67;6.35;;;20.80;99.90;;;;;;5029201;28;20474;-61
2022/06/19 02:34:37;;;;;;;21.00;6.47;;;20.80;99.90;;;;;;5030257;28;21024;-57
2022/06/19 02:37:24;;;;;;;17.38;5.63;;;20.80;99.90;;;;;;5048558;28;20393;-58
2022/06/19 02:40:12;;;;;;;15.00;5.70;;;20.80;99.90;;;;;;5031057;28;20406;-55
2022/06/19 02:42:42;;;;;;;15.60;5.72;;;20.90;99.90;;;;;;5050978;28;20520;-56
2022/06/19 02:45:33;;;;;;;12.35;5.28;;;21.00;99.90;;;;;;5052413;28;20902;-56
2022/06/19 02:48:00;;;;;;;17.47;6.10;;;21.00;99.90;;;;;;5049503;28;20893;-56
2022/06/19 02:50:32;;;;;;;18.30;6.00;;;21.00;99.90;;;;;;5051636;28;20393;-56
2022/06/19 02:52:58;;;;;;;15.90;5.97;;;20.90;99.90;;;;;;5052395;28;20400;-64
2022/06/19 02:55:24;;;;;;;19.10;5.90;;;20.80;99.90;;;;;;5051259;28;20401;-56
2022/06/19 02:57:51;;;;;;;15.45;6.00;;;20.70;99.90;;;;;;5052451;28;20434;-55
2022/06/19 03:00:26;;;;;;;16.08;5.93;;;20.50;1.00;;;;;;5051093;28;20409;-56
2022/06/19 03:02:56;;;;;;;19.15;7.10;;;20.40;1.00;;;;;;5051774;28;20397;-55
2022/06/19 03:05:26;;;;;;;14.40;5.55;;;20.40;1.00;;;;;;5051289;28;20424;-56
2022/06/19 03:07:52;;;;;;;13.77;5.73;;;20.60;1.00;;;;;;5052187;28;20378;-58
2022/06/19 03:10:18;;;;;;;16.73;6.00;;;20.80;99.90;;;;;;5050747;28;20890;-56
2022/06/19 03:12:44;;;;;;;17.60;7.00;;;20.90;99.90;;;;;;5052080;28;20404;-55
2022/06/19 03:15:11;;;;;;;20.08;5.82;;;20.90;99.90;;;;;;5052100;28;20737;-55
2022/06/19 03:17:38;;;;;;;13.48;5.80;;;20.90;99.90;;;;;;5051064;28;20393;-55
2022/06/19 03:20:04;;;;;;;14.32;5.13;;;20.90;1.00;;;;;;5033640;28;20480;-56
2022/06/19 03:22:29;;;;;;;12.88;4.88;;;20.90;99.90;;;;;;5050988;28;20399;-55
2022/06/19 03:24:55;;;;;;;14.17;5.40;;;20.90;99.90;;;;;;5033101;28;20417;-55
2022/06/19 03:27:21;;;;;;;18.23;5.97;;;21.10;99.90;;;;;;5050707;28;20443;-55
2022/06/19 03:29:46;;;;;;;15.67;5.10;;;21.20;99.90;;;;;;5051726;28;20381;-55
2022/06/19 03:32:13;;;;;;;17.45;5.10;;;21.40;99.90;;;;;;5051715;28;20434;-55
2022/06/19 03:34:42;;;;;;;12.95;5.10;;;21.60;99.90;;;;;;5050941;28;20863;-55
2022/06/19 03:37:07;;;;;;;19.23;5.18;;;21.70;99.90;;;;;;5033713;28;20406;-55
2022/06/19 03:39:34;;;;;;;20.30;5.80;;;21.80;99.90;;;;;;5050403;28;21010;-55
2022/06/19 03:42:01;;;;;;;17.75;5.30;;;21.90;99.90;;;;;;5050958;28;20728;-55
2022/06/19 03:44:27;;;;;;;16.48;5.20;;;21.90;99.90;;;;;;5050664;28;20389;-55
2022/06/19 03:46:53;;;;;;;14.10;5.38;;;21.90;99.90;;;;;;5051077;28;20413;-55
2022/06/19 03:49:19;;;;;;;17.17;6.00;;;21.80;99.90;;;;;;5050642;28;20960;-56
2022/06/19 03:51:45;;;;;;;17.27;6.37;;;21.80;99.90;;;;;;5050784;28;20940;-55
2022/06/19 03:54:11;;;;;;;18.20;5.97;;;21.80;99.90;;;;;;5051074;28;20827;-55
2022/06/19 03:56:37;;;;;;;14.77;5.70;;;21.80;99.90;;;;;;5050126;28;20401;-55
2022/06/19 03:59:04;;;;;;;13.93;5.60;;;21.80;99.90;;;;;;5045214;28;20399;-55
2022/06/19 04:01:36;;;;;;;18.42;5.90;;;21.90;99.90;;;;;;5043924;28;20421;-55
2022/06/19 04:04:04;;;;;;;16.83;6.40;;;22.00;99.90;;;;;;5050203;28;20882;-55
2022/06/19 04:06:31;;;;;;;17.17;6.10;;;22.10;99.90;;;;;;5050104;28;20708;-56
2022/06/19 04:08:58;;;;;;;17.58;6.70;;;22.00;99.90;;;;;;5050572;28;20401;-55
2022/06/19 04:11:26;;;;;;;16.80;6.47;;;22.00;99.90;;;;;;5047068;28;20397;-56
2022/06/19 04:13:53;;;;;;;17.40;6.43;;;22.00;99.90;;;;;;5050800;28;20489;-55
2022/06/19 04:16:31;;;;;;;14.80;6.43;;;21.90;99.90;;;;;;5050047;28;20746;-56
2022/06/19 04:18:58;;;;;;;15.98;6.18;;;22.00;99.90;;;;;;5051012;28;20464;-55
2022/06/19 04:21:27;;;;;;;17.47;6.03;;;21.90;99.90;;;;;;5049556;28;20439;-56
2022/06/19 04:23:57;;;;;;;17.77;6.47;;;21.90;99.90;;;;;;5050016;28;20572;-55
2022/06/19 04:26:24;;;;;;;15.32;6.50;;;22.10;99.90;;;;;;5050021;28;20374;-55
2022/06/19 04:28:50;;;;;;;13.90;6.20;;;22.30;99.90;;;;;;5050296;28;20397;-55
2022/06/19 04:31:16;;;;;;;18.33;7.00;;;22.30;99.90;;;;;;5049595;28;20909;-55
2022/06/19 04:33:42;;;;;;;16.85;6.28;;;22.40;99.90;;;;;;5050622;28;20392;-55
2022/06/19 04:36:14;;;;;;;15.63;5.67;;;22.50;99.90;;;;;;5050178;28;20394;-55
2022/06/19 04:38:41;;;;;;;18.77;6.45;;;22.60;99.90;;;;;;5049461;28;20436;-55
2022/06/19 04:41:20;;;;;;;15.43;5.90;;;22.70;99.90;;;;;;5050213;28;20413;-56
2022/06/19 04:43:47;;;;;;;13.48;5.75;;;22.80;99.90;;;;;;5032580;28;20401;-56
2022/06/19 04:46:12;;;;;;;15.38;6.38;;;23.10;99.90;;;;;;5050161;28;20443;-56
2022/06/19 04:48:39;;;;;;;16.83;5.90;;;23.30;99.90;;;;;;5049157;28;20787;-56
2022/06/19 04:51:05;;;;;;;16.30;5.65;;;23.30;99.90;;;;;;5049749;28;20408;-55
2022/06/19 04:53:32;;;;;;;17.27;5.97;;;23.50;99.90;;;;;;5049207;28;20412;-56
2022/06/19 04:55:59;;;;;;;15.30;5.70;;;23.50;99.90;;;;;;5049667;28;20404;-55
2022/06/19 04:58:24;;;;;;;14.77;6.00;;;23.70;99.90;;;;;;5049113;28;20376;-53
2022/06/19 05:00:52;;;;;;;21.02;6.20;;;24.20;99.90;;;;;;5049609;28;20499;-53
2022/06/19 05:03:19;;;;;;;15.70;5.60;;;24.90;99.90;;;;;;5048997;28;20405;-56
2022/06/19 05:05:45;;;;;;;13.85;5.60;;;25.90;99.90;;;;;;5031749;28;20746;-56
2022/06/19 05:08:11;;;;;;;18.58;6.10;;;26.50;99.90;;;;;;5049627;28;20396;-56
2022/06/19 05:10:39;;;;;;;16.35;5.90;;;27.10;99.90;;;;;;5030624;28;20413;-56
2022/06/19 05:13:06;;;;;;;15.27;5.70;;;27.80;99.90;;;;;;5049898;28;20431;-56
2022/06/19 05:15:34;;;;;;;13.90;4.57;;;28.40;99.90;;;;;;5048892;28;20577;-56
2022/06/19 05:18:01;;;;;;;13.05;5.55;;;29.00;99.90;;;;;;5049250;28;20751;-56
2022/06/19 05:20:26;;;;;;;15.90;5.93;;;29.50;99.90;;;;;;5049016;28;20487;-54
2022/06/19 05:22:52;;;;;;;15.63;6.00;;;30.00;99.90;;;;;;5049311;28;20393;-54
2022/06/19 05:25:18;;;;;;;14.77;6.00;;;30.50;99.90;;;;;;5048646;28;20451;-54
2022/06/19 05:27:43;;;;;;;17.00;6.50;;;30.80;99.90;;;;;;5049717;28;20435;-54
2022/06/19 05:30:12;;;;;;;16.83;5.47;;;30.90;99.90;;;;;;5048670;28;20393;-58
2022/06/19 05:32:38;;;;;;;17.85;7.05;;;31.50;99.90;;;;;;5048541;28;21239;-55
2022/06/19 05:35:04;;;;;;;15.87;6.20;;;31.40;99.90;;;;;;5049518;28;20405;-56
2022/06/19 05:37:30;;;;;;;15.53;6.30;;;31.60;99.90;;;;;;5048455;28;20393;-53
2022/06/19 05:39:57;;;;;;;18.57;6.07;;;31.60;99.90;;;;;;5048891;28;20413;-56
2022/06/19 05:42:22;;;;;;;13.93;5.77;;;32.00;99.90;;;;;;5048588;28;20386;-57
2022/06/19 05:44:48;;;;;;;16.47;6.20;;;32.20;99.90;;;;;;5049453;28;20889;-56
2022/06/19 05:47:14;;;;;;;16.03;6.27;;;32.60;99.90;;;;;;5037077;28;20403;-57
2022/06/19 05:49:40;;;;;;;14.20;5.67;;;32.90;99.90;;;;;;5047353;28;20425;-57
2022/06/19 05:52:21;;;;;;;19.80;6.70;;;32.80;99.90;;;;;;5048513;28;20398;-61
2022/06/19 05:54:47;;;;;;;16.05;6.60;;;33.30;99.90;;;;;;5047667;28;20925;-60
2022/06/19 05:57:13;;;;;;;11.38;5.32;;;33.40;99.90;;;;;;5048797;28;20468;-60
2022/06/19 05:59:39;;;;;;;19.20;5.78;;;34.00;99.90;;;;;;5048089;28;21288;-59
2022/06/19 06:02:05;;;;;;;16.13;6.10;;;34.40;99.90;;;;;;5017163;28;20828;-60
2022/06/19 06:04:30;;;;;;;17.90;6.95;;;34.80;99.90;;;;;;5036663;28;20961;-58
2022/06/19 06:06:56;;;;;;;15.57;5.60;;;35.00;99.90;;;;;;5045694;28;20401;-58
2022/06/19 06:09:22;;;;;;;14.43;7.10;;;35.30;99.90;;;;;;5047989;28;20397;-55
2022/06/19 06:11:47;;;;;;;17.27;7.30;;;35.90;99.90;;;;;;5049712;28;20402;-58
2022/06/19 06:14:13;;;;;;;14.90;5.20;;;36.50;99.90;;;;;;5053378;28;20421;-56
2022/06/19 06:16:39;;;;;;;18.57;5.10;;;36.80;99.90;;;;;;5049421;28;20408;-60
2022/06/19 06:19:04;;;;;;;16.10;5.60;;;37.20;99.90;;;;;;5052808;28;20395;-60
2022/06/19 06:21:30;;;;;;;16.98;5.70;;;37.30;99.90;;;;;;5043295;28;20421;-60
2022/06/19 06:23:56;;;;;;;15.73;4.50;;;37.80;99.90;;;;;;5051134;28;20413;-59
2022/06/19 06:26:25;;;;;;;17.40;4.93;;;37.60;99.90;;;;;;5037995;28;20404;-60
2022/06/19 06:28:53;;;;;;;17.92;5.30;;;37.40;99.90;;;;;;5038584;28;20414;-58
2022/06/19 06:31:19;;;;;;;16.05;5.18;;;37.30;99.90;;;;;;5039241;28;20775;-53
2022/06/19 06:33:46;;;;;;;13.65;5.03;;;36.90;99.90;;;;;;5039662;28;20474;-59
2022/06/19 06:36:14;;;;;;;16.65;5.45;;;36.70;99.90;;;;;;5045408;28;20480;-62
2022/06/19 06:38:39;;;;;;;15.60;5.38;;;36.30;99.90;;;;;;5032238;28;20613;-57
2022/06/19 06:41:07;;;;;;;15.90;6.20;;;36.20;99.90;;;;;;5040707;28;20898;-57
2022/06/19 06:43:42;;;;;;;16.35;5.40;;;35.90;99.90;;;;;;5037719;28;20472;-58
2022/06/19 06:46:21;;;;;;;12.95;4.82;;;36.30;99.90;;;;;;5041969;28;20556;-58
2022/06/19 06:48:48;;;;;;;18.75;5.13;;;37.00;99.90;;;;;;5051994;28;20396;-58
2022/06/19 06:51:16;;;;;;;18.42;5.00;;;37.40;99.90;;;;;;5037853;28;20405;-62
2022/06/19 06:53:43;;;;;;;20.40;6.33;;;38.30;99.90;;;;;;5039370;28;20449;-60
2022/06/19 06:56:09;;;;;;;16.02;5.63;;;38.40;99.90;;;;;;5039695;28;20414;-60
2022/06/19 06:58:35;;;;;;;15.77;5.03;;;39.50;99.90;;;;;;5031759;28;20815;-58
2022/06/19 07:01:28;;;;;;;19.03;6.03;;;40.40;99.90;;;;;;5031842;28;20418;-57
2022/06/19 07:03:55;;;;;;;15.13;5.45;;;41.00;99.90;;;;;;5035544;28;20415;-58
2022/06/19 07:06:23;;;;;;;18.40;7.23;;;41.50;99.90;;;;;;5037883;28;20934;-56
2022/06/19 07:08:48;;;;;;;21.40;5.80;;;42.00;99.90;;;;;;5042902;28;20762;-58
2022/06/19 07:11:18;;;;;;;19.10;5.45;;;42.00;99.90;;;;;;5039971;28;20515;-59
2022/06/19 07:13:44;;;;;;;19.93;5.30;;;41.30;99.90;;;;;;5050062;28;20404;-60
2022/06/19 07:16:10;;;;;;;20.80;9.40;;;40.20;99.90;;;;;;5042264;28;20764;-58
2022/06/19 07:18:35;;;;;;;20.27;9.40;;;38.70;99.90;;;;;;5045777;28;20409;-58
2022/06/19 07:21:01;;;;;;;22.10;9.70;;;37.60;99.90;;;;;;5050912;28;20887;-57
2022/06/19 07:23:26;;;;;;;18.60;8.95;;;37.90;99.90;;;;;;5034908;28;20481;-56
2022/06/19 07:25:52;;;;;;;15.70;7.60;;;37.40;99.90;;;;;;5042701;28;20413;-56
2022/06/19 07:28:18;;;;;;;17.67;8.10;;;37.50;99.90;;;;;;5030964;28;20383;-56
2022/06/19 07:30:45;;;;;;;18.30;8.85;;;38.40;99.90;;;;;;5035745;28;20747;-56
2022/06/19 07:33:11;;;;;;;15.98;5.60;;;39.30;99.90;;;;;;5037662;28;20389;-56
2022/06/19 07:35:36;;;;;;;12.63;5.67;;;40.80;99.90;;;;;;5028376;28;20402;-56
2022/06/19 07:38:02;;;;;;;20.57;8.70;;;40.30;99.90;;;;;;5037557;28;20426;-56
2022/06/19 07:40:28;;;;;;;17.60;10.55;;;39.30;99.90;;;;;;5014611;28;20481;-56
2022/06/19 07:42:53;;;;;;;19.23;9.37;;;39.50;99.90;;;;;;5027291;28;20401;-56
2022/06/19 07:45:19;;;;;;;13.93;5.60;;;40.20;99.90;;;;;;5041678;28;20938;-56
2022/06/19 07:50:29;;;;;;;20.67;6.90;;;42.10;99.90;;;;;;5042518;28;20412;-57
2022/06/19 07:52:55;;;;;;;18.83;6.70;;;42.60;99.90;;;;;;5031027;28;20414;-57
2022/06/19 07:55:28;;;;;;;17.13;6.90;;;43.50;99.90;;;;;;5022667;28;20763;-57
2022/06/19 07:57:54;;;;;;;19.13;6.33;;;43.90;99.90;;;;;;5040394;28;20616;-56
2022/06/19 08:00:27;;;;;;;18.23;6.40;;;43.60;99.90;;;;;;5025493;28;20415;-56
2022/06/19 08:02:53;;;;;;;19.23;6.80;;;43.30;99.90;;;;;;5035200;28;20952;-56
2022/06/19 08:05:25;;;;;;;18.70;6.30;;;42.80;99.90;;;;;;5025422;28;20760;-56
2022/06/19 08:07:52;;;;;;;18.60;6.67;;;43.10;99.90;;;;;;5037632;28;20405;-56
2022/06/19 08:10:32;;;;;;;16.00;6.93;;;42.90;99.90;;;;;;5043507;28;20397;-56
2022/06/19 08:12:58;;;;;;;16.25;6.70;;;42.40;99.90;;;;;;5031169;28;20416;-57
2022/06/19 08:15:25;;;;;;;18.15;7.00;;;41.80;99.90;;;;;;5045761;28;20397;-57
2022/06/19 08:17:51;;;;;;;19.77;8.10;;;41.00;99.90;;;;;;5039983;28;20455;-56
2022/06/19 08:20:18;;;;;;;15.50;7.03;;;41.20;99.90;;;;;;5049021;28;20445;-57
2022/06/19 08:22:44;;;;;;;17.80;7.80;;;42.00;99.90;;;;;;5034784;28;20577;-56
2022/06/19 08:25:11;;;;;;;22.33;7.82;;;42.60;99.90;;;;;;5041885;28;20440;-56
2022/06/19 08:27:42;;;;;;;16.38;8.10;;;42.40;99.90;;;;;;5046673;28;20724;-57
2022/06/19 08:30:22;;;;;;;16.38;7.72;;;42.60;99.90;;;;;;5035302;28;20461;-56
2022/06/19 08:32:48;;;;;;;14.27;7.73;;;43.90;99.90;;;;;;5035693;28;20520;-56
2022/06/19 08:35:13;;;;;;;17.45;8.60;;;44.40;99.90;;;;;;5036124;28;20421;-57
2022/06/19 08:37:41;;;;;;;15.83;7.40;;;44.70;99.90;;;;;;5046414;28;21075;-56
2022/06/19 08:40:35;;;;;;;17.70;8.30;;;44.40;99.90;;;;;;5041217;28;20449;-56
2022/06/19 08:43:07;;;;;;;17.37;8.70;;;44.10;99.90;;;;;;5048961;28;20409;-56
2022/06/19 08:46:07;;;;;;;18.30;8.52;;;44.10;99.90;;;;;;5046178;28;20488;-56
2022/06/19 08:48:51;;;;;;;15.90;9.43;;;44.60;99.90;;;;;;5042195;28;20413;-56
2022/06/19 08:51:38;;;;;;;19.02;10.00;;;46.50;99.90;;;;;;5046637;28;20397;-57
2022/06/19 08:54:14;;;;;;;17.48;9.20;;;47.70;99.90;;;;;;5040556;28;20413;-56
2022/06/19 08:57:04;;;;;;;17.70;10.10;;;47.90;99.90;;;;;;5042446;28;20474;-57
2022/06/19 09:00:04;;;;;;;17.33;7.90;;;47.30;99.90;;;;;;5030527;28;20399;-56
2022/06/19 09:02:57;;;;;;;16.50;8.18;;;47.00;99.90;;;;;;5040407;28;20730;-55
2022/06/19 09:05:46;;;;;;;21.67;9.40;;;46.30;99.90;;;;;;5031977;28;20391;-59
2022/06/19 09:08:31;;;;;;;17.30;10.48;;;45.80;99.90;;;;;;5037823;28;20524;-57
2022/06/19 09:11:06;;;;;;;16.52;8.80;;;45.80;99.90;;;;;;5047603;28;20520;-57
2022/06/19 09:14:12;;;;;;;15.90;8.80;;;45.50;99.90;;;;;;5041795;28;20909;-57
2022/06/19 09:16:39;;;;;;;18.17;9.00;;;45.60;99.90;;;;;;5043555;28;20401;-56
2022/06/19 09:19:19;;;;;;;17.07;8.70;;;45.50;99.90;;;;;;5045970;28;20393;-57
2022/06/19 09:22:15;;;;;;;16.85;8.35;;;45.60;99.90;;;;;;5042117;28;20415;-57
2022/06/19 09:24:41;;;;;;;18.23;8.20;;;46.50;99.90;;;;;;5043246;28;20601;-56
2022/06/19 09:27:10;;;;;;;16.48;7.97;;;46.20;99.90;;;;;;5028008;28;20911;-56
2022/06/19 09:29:42;;;;;;;17.35;8.73;;;46.40;99.90;;;;;;5040438;28;20440;-56
2022/06/19 09:32:33;;;;;;;15.95;8.65;;;46.40;99.90;;;;;;5043730;28;20416;-57
2022/06/19 09:35:14;;;;;;;23.40;13.73;;;46.00;99.90;;;;;;5043444;28;20408;-56
2022/06/19 09:38:04;;;;;;;16.30;11.10;;;45.10;99.90;;;;;;5038328;28;20411;-57
2022/06/19 09:40:39;;;;;;;18.58;11.73;;;44.50;99.90;;;;;;5026173;28;20480;-56
2022/06/19 09:43:22;;;;;;;15.33;10.33;;;43.30;99.90;;;;;;5043394;28;20417;-56
2022/06/19 09:45:55;;;;;;;16.35;8.55;;;42.60;99.90;;;;;;5046030;28;20759;-58
2022/06/19 09:48:57;;;;;;;15.57;10.15;;;41.70;99.90;;;;;;5045833;28;21090;-57
2022/06/19 09:51:36;;;;;;;16.48;9.90;;;40.90;99.90;;;;;;4966552;28;20458;-61
2022/06/19 09:54:14;;;;;;;15.13;10.07;;;41.40;99.90;;;;;;5038777;28;20424;-57
2022/06/19 09:56:50;;;;;;;15.50;10.43;;;41.90;99.90;;;;;;5049325;28;20409;-56
2022/06/19 09:59:28;;;;;;;11.85;8.65;;;41.00;99.90;;;;;;5049896;28;20443;-56
2022/06/19 10:01:57;;;;;;;17.58;9.05;;;41.00;99.90;;;;;;5051889;28;20436;-56
2022/06/19 10:04:49;;;;;;;14.95;8.73;;;40.40;99.90;;;;;;5050908;28;20516;-58
2022/06/19 10:07:25;;;;;;;14.45;9.32;;;40.90;99.90;;;;;;5050731;28;20401;-56
2022/06/19 10:10:00;;;;;;;13.52;8.23;;;40.10;99.90;;;;;;5049917;28;20773;-56
2022/06/19 10:12:48;;;;;;;20.97;10.93;;;39.90;99.90;;;;;;5049279;28;20754;-56
2022/06/19 10:15:25;;;;;;;16.85;9.02;;;39.60;99.90;;;;;;5047376;28;20456;-56
2022/06/19 10:17:56;;;;;;;15.80;10.50;;;39.70;99.90;;;;;;5049145;28;20450;-56
2022/06/19 10:20:45;;;;;;;15.32;10.10;;;40.10;99.90;;;;;;5051187;28;20946;-58
2022/06/19 10:23:39;;;;;;;15.00;8.75;;;40.40;99.90;;;;;;5038618;28;20823;-56
2022/06/19 10:26:36;;;;;;;14.13;9.32;;;40.80;99.90;;;;;;5048658;28;20431;-56
2022/06/19 10:29:30;;;;;;;18.33;10.50;;;40.60;99.90;;;;;;5051171;28;20415;-56
2022/06/19 10:32:23;;;;;;;16.73;9.68;;;40.90;99.90;;;;;;5046981;28;20404;-56
2022/06/19 10:34:55;;;;;;;23.15;10.20;;;40.00;99.90;;;;;;5049655;28;20393;-56
2022/06/19 10:37:38;;;;;;;14.90;9.30;;;39.60;99.90;;;;;;5050873;28;20401;-56
2022/06/19 10:40:19;;;;;;;16.37;9.20;;;40.10;99.90;;;;;;5049765;28;20472;-57
2022/06/19 10:42:53;;;;;;;19.30;10.48;;;39.40;99.90;;;;;;5047159;28;21042;-56
2022/06/19 10:45:38;;;;;;;15.57;10.73;;;39.30;99.90;;;;;;5044604;28;20458;-56
2022/06/19 10:48:32;;;;;;;20.03;10.40;;;39.00;99.90;;;;;;5050154;28;20763;-57
2022/06/19 10:51:27;;;;;;;16.25;9.63;;;39.40;99.90;;;;;;5050393;28;20437;-56
2022/06/19 10:54:11;;;;;;;16.08;10.63;;;39.10;99.90;;;;;;5049588;28;20413;-56
2022/06/19 10:57:25;;;;;;;15.70;9.65;;;38.90;99.90;;;;;;5046967;28;20444;-56
2022/06/19 10:59:51;;;;;;;14.43;9.85;;;39.10;99.90;;;;;;5015509;28;20429;-56
2022/06/19 11:05:49;;;;;;;15.30;10.07;;;38.90;99.90;;;;;;5046225;28;20496;-57
2022/06/19 11:08:18;;;;;;;15.85;10.43;;;39.00;99.90;;;;;;5036331;28;20480;-56
2022/06/19 11:10:52;;;;;;;15.20;10.45;;;39.10;99.90;;;;;;5050464;28;20401;-56
2022/06/19 11:13:19;;;;;;;17.25;11.35;;;39.20;99.90;;;;;;5051930;28;20416;-56
2022/06/19 11:16:00;;;;;;;17.67;11.25;;;39.00;99.90;;;;;;5050851;28;20373;-56
2022/06/19 11:18:26;;;;;;;14.03;10.80;;;38.50;99.90;;;;;;5049723;28;20905;-58
2022/06/19 11:21:11;;;;;;;15.40;9.60;;;38.60;99.90;;;;;;5050599;28;20410;-57
2022/06/19 11:23:51;;;;;;;16.50;9.90;;;38.70;99.90;;;;;;5043937;28;20423;-57
2022/06/19 11:26:21;;;;;;;23.30;10.70;;;39.00;99.90;;;;;;5031146;28;20407;-56
2022/06/19 11:28:49;;;;;;;31.13;11.68;;;38.80;99.90;;;;;;5026908;28;20482;-56
2022/06/19 11:31:22;;;;;;;29.50;13.40;;;38.80;99.90;;;;;;5030535;28;20398;-55
2022/06/19 11:33:52;;;;;;;21.08;11.90;;;38.80;99.90;;;;;;5028070;28;20388;-56
2022/06/19 11:36:35;;;;;;;14.88;11.40;;;38.60;99.90;;;;;;5030153;28;20390;-57
2022/06/19 11:39:31;;;;;;;16.00;11.60;;;38.70;99.90;;;;;;5029911;28;20395;-55
2022/06/19 11:41:57;;;;;;;13.77;11.65;;;38.50;99.90;;;;;;5029414;28;20903;-56
2022/06/19 11:44:23;;;;;;;14.60;11.30;;;38.40;99.90;;;;;;5033163;28;20383;-58
2022/06/19 11:46:52;;;;;;;13.10;9.63;;;38.60;99.90;;;;;;5025622;28;20799;-56
2022/06/19 11:49:26;;;;;;;14.07;11.90;;;38.80;99.90;;;;;;5027419;28;20399;-57
2022/06/19 11:51:53;;;;;;;16.23;11.80;;;38.30;99.90;;;;;;5028609;28;20911;-56
2022/06/19 11:54:25;;;;;;;15.57;11.30;;;38.20;99.90;;;;;;5029000;28;20423;-56
2022/06/19 11:56:52;;;;;;;17.77;12.52;;;38.20;99.90;;;;;;5028807;28;20477;-57
2022/06/19 11:59:44;;;;;;;17.25;11.90;;;38.20;99.90;;;;;;5030986;28;20375;-58
2022/06/19 12:02:33;;;;;;;18.90;12.37;;;38.60;99.90;;;;;;5031147;28;20537;-57
2022/06/19 12:05:06;;;;;;;17.20;12.50;;;38.60;99.90;;;;;;5030844;28;20405;-56
2022/06/19 12:07:36;;;;;;;15.95;12.40;;;38.50;99.90;;;;;;5025586;28;20403;-58
2022/06/19 12:10:02;;;;;;;16.55;11.95;;;38.40;99.90;;;;;;5030362;28;20422;-55
2022/06/19 12:12:31;;;;;;;14.40;11.07;;;38.60;99.90;;;;;;5029230;28;20388;-56
2022/06/19 12:15:16;;;;;;;14.80;12.50;;;39.00;99.90;;;;;;5029385;28;20399;-56
2022/06/19 12:17:44;;;;;;;17.50;11.93;;;39.00;99.90;;;;;;5017832;28;20403;-56
2022/06/19 12:20:10;;;;;;;14.77;10.90;;;38.50;99.90;;;;;;5028264;28;20526;-56
2022/06/19 12:22:57;;;;;;;19.00;13.37;;;38.10;99.90;;;;;;5027279;28;20499;-56
2022/06/19 12:25:43;;;;;;;13.70;10.70;;;38.30;99.90;;;;;;5029491;28;20414;-58
2022/06/19 12:28:33;;;;;;;16.55;12.63;;;38.10;99.90;;;;;;5028957;28;20474;-56
2022/06/19 12:31:04;;;;;;;16.70;10.90;;;38.30;99.90;;;;;;5029260;28;20394;-56
2022/06/19 12:33:40;;;;;;;15.37;11.40;;;38.00;99.90;;;;;;5029393;28;20788;-56
2022/06/19 12:36:10;;;;;;;17.02;11.55;;;37.80;99.90;;;;;;5033809;28;20404;-56
2022/06/19 12:38:36;;;;;;;18.20;11.77;;;37.80;99.90;;;;;;5030915;28;20398;-57
2022/06/19 12:41:08;;;;;;;15.38;11.00;;;37.90;99.90;;;;;;5026973;28;20447;-55
2022/06/19 12:43:40;;;;;;;16.33;10.50;;;38.20;99.90;;;;;;5027509;28;20406;-56
2022/06/19 12:46:35;;;;;;;17.08;11.82;;;38.30;99.90;;;;;;5027291;28;20411;-56
2022/06/19 12:49:28;;;;;;;15.07;10.98;;;38.40;99.90;;;;;;5014749;28;20408;-58
2022/06/19 12:52:17;;;;;;;16.27;10.70;;;38.40;99.90;;;;;;5026953;28;20430;-56
2022/06/19 12:54:46;;;;;;;16.45;10.70;;;38.30;99.90;;;;;;5020630;28;20417;-55
2022/06/19 12:57:35;;;;;;;24.83;18.17;;;38.40;99.90;;;;;;5028835;28;20403;-56
2022/06/19 13:00:19;;;;;;;18.27;10.57;;;38.30;99.90;;;;;;5027704;28;20896;-56
2022/06/19 13:03:12;;;;;;;16.15;11.15;;;37.90;99.90;;;;;;5027150;28;20925;-57
2022/06/19 13:05:46;;;;;;;19.30;10.85;;;38.00;99.90;;;;;;5026818;28;20423;-57
2022/06/19 13:08:23;;;;;;;17.50;11.73;;;37.80;99.90;;;;;;5028599;28;20400;-56
2022/06/19 13:11:47;;;;;;;17.35;11.27;;;37.80;99.90;;;;;;5029064;28;20413;-56